createdAt,value
2022-08-21T00:00:20.263Z,98407.56
2022-08-21T00:02:50.546Z,98402.72
2022-08-21T00:05:18.072Z,98406.59
2022-08-21T00:07:44.669Z,98407.59
2022-08-21T00:10:11.743Z,98411.03
2022-08-21T00:12:38.611Z,98408.41
2022-08-21T00:15:07.205Z,98406.50
2022-08-21T00:17:35.793Z,98409.31
2022-08-21T00:20:05.004Z,98403.53
2022-08-21T00:22:31.592Z,98405.53
2022-08-21T00:24:58.987Z,98400.88
2022-08-21T00:27:25.572Z,98403.25
2022-08-21T00:29:52.756Z,98406.59
2022-08-21T00:32:23.944Z,98404.97
2022-08-21T00:34:51.278Z,98405.97
2022-08-21T00:37:17.881Z,98406.34
2022-08-21T00:39:44.605Z,98401.63
2022-08-21T00:42:15.744Z,98409.47
2022-08-21T00:44:47.302Z,98411.47
2022-08-21T00:47:14.423Z,98397.16
2022-08-21T00:49:41.438Z,98396.16
2022-08-21T00:52:11.397Z,98396.59
2022-08-21T00:54:39.629Z,98387.72
2022-08-21T00:57:20.954Z,98394.28
2022-08-21T00:59:51.110Z,98391.72
2022-08-21T01:02:18.919Z,98394.91
2022-08-21T01:04:45.905Z,98387.78
2022-08-21T01:07:13.562Z,98395.56
2022-08-21T01:09:40.427Z,98392.72
2022-08-21T01:12:07.570Z,98393.72
2022-08-21T01:14:34.759Z,98399.81
2022-08-21T01:17:02.161Z,98396.72
2022-08-21T01:19:28.876Z,98391.94
2022-08-21T01:21:55.814Z,98392.34
2022-08-21T01:24:22.823Z,98386.13
2022-08-21T01:26:50.441Z,98390.31
2022-08-21T01:29:45.015Z,98388.34
2022-08-21T01:32:17.493Z,98391.31
2022-08-21T01:34:45.284Z,98395.47
2022-08-21T01:37:12.707Z,98386.66
2022-08-21T01:39:39.538Z,98391.00
2022-08-21T01:42:06.610Z,98393.72
2022-08-21T01:44:35.042Z,98386.91
2022-08-21T01:47:03.704Z,98390.28
2022-08-21T01:49:30.319Z,98386.13
2022-08-21T01:51:56.998Z,98387.94
2022-08-21T01:54:23.548Z,98387.31
2022-08-21T01:56:52.684Z,98382.47
2022-08-21T01:59:19.574Z,98386.44
2022-08-21T02:01:46.179Z,98374.44
2022-08-21T02:04:12.785Z,98380.44
2022-08-21T02:06:40.011Z,98378.25
2022-08-21T02:09:08.609Z,98370.78
2022-08-21T02:11:36.781Z,98374.75
2022-08-21T02:14:03.527Z,98361.63
2022-08-21T02:16:30.167Z,98372.09
2022-08-21T02:19:00.842Z,98375.97
2022-08-21T02:21:27.535Z,98370.66
2022-08-21T02:23:54.096Z,98373.88
2022-08-21T02:26:20.630Z,98364.94
2022-08-21T02:28:47.575Z,98364.59
2022-08-21T02:31:14.950Z,98365.28
2022-08-21T02:33:41.561Z,98365.47
2022-08-21T02:36:09.388Z,98368.59
2022-08-21T02:38:40.533Z,98366.56
2022-08-21T02:41:10.113Z,98366.88
2022-08-21T02:43:36.872Z,98368.69
2022-08-21T02:46:05.943Z,98364.69
2022-08-21T02:48:33.868Z,98366.88
2022-08-21T02:51:10.819Z,98372.81
2022-08-21T02:53:38.215Z,98368.72
2022-08-21T02:56:08.361Z,98371.06
2022-08-21T02:58:42.418Z,98371.56
2022-08-21T03:01:10.448Z,98368.44
2022-08-21T03:03:39.246Z,98366.47
2022-08-21T03:06:09.100Z,98374.91
2022-08-21T03:08:36.704Z,98365.56
2022-08-21T03:11:03.992Z,98371.84
2022-08-21T03:13:33.160Z,98375.97
2022-08-21T03:15:59.854Z,98369.34
2022-08-21T03:18:26.975Z,98368.31
2022-08-21T03:20:54.029Z,98365.19
2022-08-21T03:23:20.709Z,98358.91
2022-08-21T03:25:48.923Z,98365.59
2022-08-21T03:28:18.473Z,98371.97
2022-08-21T03:30:47.409Z,98373.66
2022-08-21T03:33:15.561Z,98367.03
2022-08-21T03:35:57.767Z,98366.06
2022-08-21T03:38:26.736Z,98367.56
2022-08-21T03:40:53.657Z,98369.53
2022-08-21T03:43:20.341Z,98371.56
2022-08-21T03:45:47.010Z,98373.69
2022-08-21T03:48:13.964Z,98378.31
2022-08-21T03:50:42.553Z,98382.00
2022-08-21T03:53:17.138Z,98380.50
2022-08-21T03:55:46.640Z,98384.66
2022-08-21T03:58:16.131Z,98383.00
2022-08-21T04:00:48.365Z,98382.81
2022-08-21T04:03:15.422Z,98385.31
2022-08-21T04:05:42.597Z,98386.63
2022-08-21T04:08:09.602Z,98385.00
2022-08-21T04:10:38.906Z,98382.34
2022-08-21T04:13:06.715Z,98381.00
2022-08-21T04:15:33.535Z,98381.81
2022-08-21T04:18:00.384Z,98389.78
2022-08-21T04:20:27.651Z,98388.13
2022-08-21T04:22:54.875Z,98395.59
2022-08-21T04:25:23.640Z,98394.13
2022-08-21T04:27:50.544Z,98400.88
2022-08-21T04:30:17.718Z,98400.38
2022-08-21T04:32:47.739Z,98412.34
2022-08-21T04:35:17.501Z,98415.47
2022-08-21T04:37:44.098Z,98419.63
2022-08-21T04:40:13.171Z,98418.47
2022-08-21T04:42:51.068Z,98426.09
2022-08-21T04:45:31.925Z,98424.25
2022-08-21T04:48:00.465Z,98423.63
2022-08-21T04:50:46.807Z,98428.25
2022-08-21T04:53:17.634Z,98425.63
2022-08-21T04:55:44.437Z,98434.06
2022-08-21T04:58:12.669Z,98431.91
2022-08-21T05:00:39.364Z,98438.53
2022-08-21T05:03:07.643Z,98424.09
2022-08-21T05:05:35.433Z,98428.72
2022-08-21T05:08:03.608Z,98424.38
2022-08-21T05:10:32.550Z,98428.63
2022-08-21T05:12:59.534Z,98423.81
2022-08-21T05:15:26.271Z,98431.44
2022-08-21T05:18:00.748Z,98430.09
2022-08-21T05:20:28.967Z,98431.91
2022-08-21T05:22:55.837Z,98433.53
2022-08-21T05:25:23.767Z,98444.78
2022-08-21T05:27:52.397Z,98443.72
2022-08-21T05:30:20.863Z,98445.56
2022-08-21T05:32:48.594Z,98438.59
2022-08-21T05:35:15.190Z,98442.28
2022-08-21T05:37:41.727Z,98442.84
2022-08-21T05:40:22.543Z,98444.03
2022-08-21T05:42:55.381Z,98445.88
2022-08-21T05:45:42.782Z,98460.03
2022-08-21T05:48:11.872Z,98447.56
2022-08-21T05:50:39.630Z,98453.53
2022-08-21T05:53:07.653Z,98450.22
2022-08-21T05:55:34.571Z,98453.34
2022-08-21T05:58:01.637Z,98451.16
2022-08-21T06:00:28.370Z,98454.47
2022-08-21T06:02:55.032Z,98453.16
2022-08-21T06:05:36.787Z,98451.97
2022-08-21T06:08:04.866Z,98454.69
2022-08-21T06:10:32.242Z,98452.53
2022-08-21T06:12:59.065Z,98448.78
2022-08-21T06:15:26.079Z,98451.38
2022-08-21T06:17:53.665Z,98458.69
2022-08-21T06:20:20.337Z,98453.94
2022-08-21T06:22:46.980Z,98454.56
2022-08-21T06:25:13.545Z,98463.69
2022-08-21T06:27:40.493Z,98456.84
2022-08-21T06:30:08.379Z,98459.59
2022-08-21T06:32:35.613Z,98456.22
2022-08-21T06:35:02.241Z,98451.19
2022-08-21T06:37:29.029Z,98456.84
2022-08-21T06:39:55.593Z,98451.09
2022-08-21T06:42:22.389Z,98443.69
2022-08-21T06:44:55.717Z,98445.53
2022-08-21T06:47:22.356Z,98450.16
2022-08-21T06:49:48.917Z,98448.13
2022-08-21T06:52:16.479Z,98447.56
2022-08-21T06:54:43.063Z,98449.16
2022-08-21T06:57:09.687Z,98445.81
2022-08-21T06:59:36.418Z,98444.31
2022-08-21T07:02:03.172Z,98447.56
2022-08-21T07:04:29.799Z,98442.50
2022-08-21T07:06:56.426Z,98441.56
2022-08-21T07:09:24.768Z,98441.06
2022-08-21T07:11:53.503Z,98451.22
2022-08-21T07:14:20.752Z,98449.06
2022-08-21T07:16:48.550Z,98442.41
2022-08-21T07:19:15.161Z,98441.25
2022-08-21T07:21:41.772Z,98443.97
2022-08-21T07:24:08.395Z,98440.59
2022-08-21T07:26:34.946Z,98438.44
2022-08-21T07:29:01.582Z,98435.88
2022-08-21T07:31:28.883Z,98440.72
2022-08-21T07:33:55.871Z,98428.25
2022-08-21T07:36:22.519Z,98430.19
2022-08-21T07:38:49.370Z,98425.28
2022-08-21T07:41:25.869Z,98435.84
2022-08-21T07:43:52.906Z,98420.44
2022-08-21T07:46:20.509Z,98422.13
2022-08-21T07:48:47.292Z,98429.56
2022-08-21T07:51:15.644Z,98420.38
2022-08-21T07:53:42.660Z,98424.94
2022-08-21T07:56:11.891Z,98427.84
2022-08-21T07:58:38.774Z,98423.72
2022-08-21T08:01:07.434Z,98425.41
2022-08-21T08:03:34.454Z,98420.06
2022-08-21T08:06:01.130Z,98416.78
2022-08-21T08:08:29.066Z,98418.44
2022-08-21T08:10:57.289Z,98414.09
2022-08-21T08:13:24.169Z,98413.69
2022-08-21T08:15:50.881Z,98402.78
2022-08-21T08:18:17.524Z,98410.59
2022-08-21T08:20:44.127Z,98403.56
2022-08-21T08:23:12.660Z,98404.13
2022-08-21T08:25:39.634Z,98408.47
2022-08-21T08:28:17.459Z,98406.94
2022-08-21T08:30:46.543Z,98399.13
2022-08-21T08:33:14.253Z,98399.94
2022-08-21T08:35:42.328Z,98396.13
2022-08-21T08:38:09.282Z,98392.09
2022-08-21T08:40:45.012Z,98389.91
2022-08-21T08:43:14.377Z,98380.44
2022-08-21T08:45:44.033Z,98385.41
2022-08-21T08:48:14.665Z,98389.25
2022-08-21T08:50:52.682Z,98378.97
2022-08-21T08:53:24.293Z,98378.22
2022-08-21T08:55:53.004Z,98373.81
2022-08-21T08:58:25.555Z,98375.06
2022-08-21T09:00:53.143Z,98379.94
2022-08-21T09:03:19.915Z,98373.75
2022-08-21T09:05:49.562Z,98373.44
2022-08-21T09:08:22.134Z,98373.06
2022-08-21T09:11:19.639Z,98371.28
2022-08-21T09:13:57.165Z,98369.00
2022-08-21T09:16:44.889Z,98365.00
2022-08-21T09:19:24.753Z,98367.00
2022-08-21T09:22:24.105Z,98365.50
2022-08-21T09:25:13.836Z,98359.88
2022-08-21T09:27:40.779Z,98362.66
2022-08-21T09:30:08.297Z,98355.03
2022-08-21T09:32:37.682Z,98357.69
2022-08-21T09:35:21.127Z,98351.97
2022-08-21T09:37:54.034Z,98359.34
2022-08-21T09:40:36.738Z,98349.00
2022-08-21T09:43:12.534Z,98347.00
2022-08-21T09:45:41.172Z,98349.38
2022-08-21T09:48:10.434Z,98345.69
2022-08-21T09:50:37.551Z,98342.19
2022-08-21T09:53:04.215Z,98344.84
2022-08-21T09:55:58.187Z,98337.59
2022-08-21T09:58:35.605Z,98336.44
2022-08-21T10:01:05.813Z,98335.09
2022-08-21T10:03:32.908Z,98334.44
2022-08-21T10:06:07.278Z,98335.84
2022-08-21T10:08:38.445Z,98337.38
2022-08-21T10:11:16.611Z,98322.84
2022-08-21T10:14:05.387Z,98333.50
2022-08-21T10:16:48.596Z,98330.22
2022-08-21T10:19:15.141Z,98325.19
2022-08-21T10:21:57.083Z,98319.56
2022-08-21T10:25:04.896Z,98320.50
2022-08-21T10:27:53.078Z,98318.28
2022-08-21T10:30:31.284Z,98314.16
2022-08-21T10:33:04.070Z,98314.66
2022-08-21T10:35:35.076Z,98313.81
2022-08-21T10:38:09.163Z,98301.63
2022-08-21T10:40:44.092Z,98301.97
2022-08-21T10:43:32.026Z,98308.78
2022-08-21T10:49:34.666Z,98293.88
2022-08-21T10:52:37.276Z,98297.63
2022-08-21T10:55:10.409Z,98295.97
2022-08-21T10:57:53.944Z,98293.28
2022-08-21T11:00:37.841Z,98291.19
2022-08-21T11:03:28.236Z,98285.09
2022-08-21T11:06:12.689Z,98290.41
2022-08-21T11:08:56.477Z,98289.56
2022-08-21T11:11:45.106Z,98276.09
2022-08-21T11:14:49.966Z,98275.72
2022-08-21T11:17:25.500Z,98274.22
2022-08-21T11:20:01.733Z,98273.59
2022-08-21T11:22:45.604Z,98268.66
2022-08-21T11:25:27.194Z,98273.25
2022-08-21T11:28:21.241Z,98266.38
2022-08-21T11:31:17.687Z,98265.78
2022-08-21T11:34:02.193Z,98270.91
2022-08-21T11:36:34.637Z,98269.59
2022-08-21T11:39:23.810Z,98259.09
2022-08-21T11:42:27.016Z,98263.53
2022-08-21T11:45:05.417Z,98258.53
2022-08-21T11:48:01.968Z,98259.44
2022-08-21T11:50:35.396Z,98252.13
2022-08-21T11:53:53.801Z,98244.44
2022-08-21T11:56:35.699Z,98251.88
2022-08-21T11:59:24.866Z,98244.66
2022-08-21T12:01:58.546Z,98245.84
2022-08-21T12:04:55.482Z,98250.72
2022-08-21T12:07:41.367Z,98242.03
2022-08-21T12:10:23.584Z,98252.25
2022-08-21T12:12:57.790Z,98252.19
2022-08-21T12:15:35.232Z,98251.78
2022-08-21T12:21:21.603Z,98238.28
2022-08-21T12:23:51.500Z,98240.09
2022-08-21T12:26:29.093Z,98235.78
2022-08-21T12:29:31.322Z,98235.03
2022-08-21T12:32:31.058Z,98224.91
2022-08-21T12:35:25.030Z,98228.22
2022-08-21T12:38:38.411Z,98226.38
2022-08-21T12:41:14.081Z,98217.88
2022-08-21T12:43:53.449Z,98214.88
2022-08-21T12:46:41.195Z,98206.00
2022-08-21T12:49:33.309Z,98205.09
2022-08-21T12:52:38.440Z,98207.81
2022-08-21T12:55:06.297Z,98206.31
2022-08-21T12:57:36.817Z,98203.28
2022-08-21T13:00:12.942Z,98204.22
2022-08-21T13:02:44.126Z,98198.97
2022-08-21T13:05:15.741Z,98204.56
2022-08-21T13:07:47.661Z,98202.63
2022-08-21T13:10:27.564Z,98202.97
2022-08-21T13:13:02.463Z,98202.97
2022-08-21T13:15:41.318Z,98205.47
2022-08-21T13:18:26.241Z,98198.66
2022-08-21T13:21:04.045Z,98193.34
2022-08-21T13:23:31.457Z,98198.53
2022-08-21T13:25:58.680Z,98197.28
2022-08-21T13:28:25.425Z,98197.88
2022-08-21T13:30:54.651Z,98199.00
2022-08-21T13:33:24.230Z,98198.03
2022-08-21T13:36:13.009Z,98190.66
2022-08-21T13:38:42.467Z,98196.16
2022-08-21T13:41:17.256Z,98187.38
2022-08-21T13:43:51.195Z,98185.44
2022-08-21T13:46:19.093Z,98184.81
2022-08-21T13:48:45.800Z,98184.91
2022-08-21T13:51:12.913Z,98182.09
2022-08-21T13:53:43.668Z,98179.13
2022-08-21T13:56:10.269Z,98170.28
2022-08-21T13:58:45.460Z,98163.50
2022-08-21T14:01:22.465Z,98161.75
2022-08-21T14:03:51.166Z,98164.31
2022-08-21T14:06:24.233Z,98166.00
2022-08-21T14:09:09.253Z,98169.50
2022-08-21T14:11:36.655Z,98165.66
2022-08-21T14:14:05.766Z,98166.41
2022-08-21T14:16:55.347Z,98163.47
2022-08-21T14:19:28.365Z,98156.66
2022-08-21T14:21:55.640Z,98154.84
2022-08-21T14:24:28.706Z,98160.47
2022-08-21T14:27:02.586Z,98150.09
2022-08-21T14:29:32.680Z,98155.06
2022-08-21T14:32:24.497Z,98144.03
2022-08-21T14:34:52.240Z,98150.09
2022-08-21T14:37:19.969Z,98142.78
2022-08-21T14:39:46.639Z,98142.00
2022-08-21T14:42:13.981Z,98151.28
2022-08-21T14:44:40.654Z,98137.56
2022-08-21T14:47:07.344Z,98141.38
2022-08-21T14:49:34.000Z,98140.56
2022-08-21T14:52:00.672Z,98139.53
2022-08-21T14:54:31.696Z,98142.69
2022-08-21T14:57:09.608Z,98137.47
2022-08-21T14:59:36.947Z,98126.81
2022-08-21T15:02:05.304Z,98131.53
2022-08-21T15:04:32.754Z,98124.03
2022-08-21T15:06:59.502Z,98121.75
2022-08-21T15:09:26.051Z,98117.44
2022-08-21T15:11:54.557Z,98117.44
2022-08-21T15:14:23.053Z,98118.88
2022-08-21T15:16:50.164Z,98118.88
2022-08-21T15:19:16.944Z,98112.13
2022-08-21T15:21:43.805Z,98107.66
2022-08-21T15:24:10.400Z,98110.69
2022-08-21T15:26:37.562Z,98103.38
2022-08-21T15:29:06.681Z,98108.44
2022-08-21T15:31:33.771Z,98104.78
2022-08-21T15:34:00.339Z,98102.63
2022-08-21T15:36:27.051Z,98101.72
2022-08-21T15:38:53.628Z,98103.47
2022-08-21T15:41:20.239Z,98090.41
2022-08-21T15:43:49.287Z,98095.63
2022-08-21T15:46:17.874Z,98095.59
2022-08-21T15:48:44.897Z,98094.84
2022-08-21T15:51:12.073Z,98092.72
2022-08-21T15:53:40.925Z,98085.69
2022-08-21T15:56:14.217Z,98089.59
2022-08-21T15:58:40.892Z,98088.75
2022-08-21T16:01:07.568Z,98079.88
2022-08-21T16:03:34.552Z,98077.13
2022-08-21T16:06:01.191Z,98080.09
2022-08-21T16:08:27.865Z,98083.09
2022-08-21T16:10:55.608Z,98088.69
2022-08-21T16:13:26.472Z,98086.81
2022-08-21T16:15:53.407Z,98084.00
2022-08-21T16:18:21.652Z,98077.06
2022-08-21T16:20:48.236Z,98078.44
2022-08-21T16:23:14.843Z,98073.44
2022-08-21T16:25:42.232Z,98074.78
2022-08-21T16:28:12.192Z,98074.34
2022-08-21T16:30:40.455Z,98072.66
2022-08-21T16:33:08.526Z,98069.34
2022-08-21T16:35:35.202Z,98070.25
2022-08-21T16:38:02.232Z,98070.13
2022-08-21T16:40:29.633Z,98061.63
2022-08-21T16:42:56.712Z,98058.25
2022-08-21T16:45:23.635Z,98065.97
2022-08-21T16:47:51.250Z,98062.22
2022-08-21T16:50:22.364Z,98057.81
2022-08-21T16:52:49.118Z,98052.22
2022-08-21T16:55:16.724Z,98046.06
2022-08-21T16:57:43.537Z,98050.59
2022-08-21T17:00:14.137Z,98049.69
2022-08-21T17:02:45.227Z,98056.19
2022-08-21T17:05:14.038Z,98045.97
2022-08-21T17:07:41.744Z,98050.94
2022-08-21T17:10:09.505Z,98057.06
2022-08-21T17:12:36.434Z,98051.38
2022-08-21T17:15:08.326Z,98050.56
2022-08-21T17:17:35.303Z,98053.34
2022-08-21T17:20:01.960Z,98050.47
2022-08-21T17:22:28.623Z,98048.44
2022-08-21T17:24:55.501Z,98057.28
2022-08-21T17:27:26.761Z,98055.31
2022-08-21T17:29:54.641Z,98061.13
2022-08-21T17:32:21.717Z,98059.31
2022-08-21T17:34:48.356Z,98056.03
2022-08-21T17:37:15.312Z,98059.13
2022-08-21T17:39:41.905Z,98057.91
2022-08-21T17:42:11.730Z,98051.44
2022-08-21T17:44:40.344Z,98047.75
2022-08-21T17:47:07.554Z,98060.06
2022-08-21T17:49:34.832Z,98057.63
2022-08-21T17:52:01.419Z,98056.59
2022-08-21T17:54:28.370Z,98055.75
2022-08-21T17:56:55.846Z,98054.47
2022-08-21T17:59:25.820Z,98057.72
2022-08-21T18:01:54.399Z,98056.31
2022-08-21T18:04:20.944Z,98060.09
2022-08-21T18:06:47.558Z,98055.63
2022-08-21T18:09:15.239Z,98065.59
2022-08-21T18:11:42.505Z,98064.59
2022-08-21T18:14:10.544Z,98057.97
2022-08-21T18:16:37.832Z,98064.31
2022-08-21T18:19:09.486Z,98067.00
2022-08-21T18:21:36.374Z,98067.50
2022-08-21T18:24:03.732Z,98072.34
2022-08-21T18:26:37.224Z,98068.53
2022-08-21T18:29:06.340Z,98066.56
2022-08-21T18:31:34.158Z,98083.31
2022-08-21T18:34:03.343Z,98071.81
2022-08-21T18:36:30.039Z,98079.09
2022-08-21T18:39:13.654Z,98079.53
2022-08-21T18:41:44.744Z,98075.50
2022-08-21T18:44:12.925Z,98082.78
2022-08-21T18:46:39.573Z,98087.16
2022-08-21T18:49:07.331Z,98090.09
2022-08-21T18:51:34.192Z,98089.31
2022-08-21T18:54:00.787Z,98091.63
2022-08-21T18:56:27.875Z,98096.75
2022-08-21T18:58:58.264Z,98095.94
2022-08-21T19:01:25.724Z,98091.44
2022-08-21T19:03:52.798Z,98101.56
2022-08-21T19:06:19.357Z,98100.19
2022-08-21T19:08:45.853Z,98100.78
2022-08-21T19:11:12.509Z,98106.41
2022-08-21T19:13:39.295Z,98100.97
2022-08-21T19:16:06.096Z,98108.84
2022-08-21T19:18:40.158Z,98104.78
2022-08-21T19:21:06.971Z,98109.53
2022-08-21T19:23:35.169Z,98117.63
2022-08-21T19:26:05.822Z,98110.00
2022-08-21T19:28:37.653Z,98108.16
2022-08-21T19:31:23.663Z,98116.63
2022-08-21T19:33:57.713Z,98118.28
2022-08-21T19:36:28.791Z,98118.09
2022-08-21T19:38:55.331Z,98118.53
2022-08-21T19:41:23.135Z,98125.31
2022-08-21T19:43:54.608Z,98125.50
2022-08-21T19:46:29.205Z,98126.38
2022-08-21T19:48:56.896Z,98124.75
2022-08-21T19:51:24.504Z,98128.25
2022-08-21T19:53:57.023Z,98128.69
2022-08-21T19:56:39.481Z,98125.00
2022-08-21T19:59:09.366Z,98115.91
2022-08-21T20:01:36.307Z,98127.03
2022-08-21T20:04:08.624Z,98121.03
2022-08-21T20:06:44.933Z,98125.56
2022-08-21T20:09:12.287Z,98123.53
2022-08-21T20:11:41.259Z,98125.19
2022-08-21T20:14:09.739Z,98122.69
2022-08-21T20:16:36.514Z,98134.22
2022-08-21T20:19:04.728Z,98128.88
2022-08-21T20:21:43.322Z,98131.38
2022-08-21T20:27:00.159Z,98129.09
2022-08-21T20:29:31.482Z,98126.00
2022-08-21T20:32:04.833Z,98131.16
2022-08-21T20:34:32.350Z,98128.91
2022-08-21T20:37:01.161Z,98127.88
2022-08-21T20:39:28.292Z,98133.00
2022-08-21T20:41:55.492Z,98136.72
2022-08-21T20:44:22.715Z,98131.75
2022-08-21T20:46:54.036Z,98132.19
2022-08-21T20:49:25.922Z,98131.97
2022-08-21T20:51:53.236Z,98138.13
2022-08-21T20:54:41.938Z,98141.41
2022-08-21T20:57:17.639Z,98137.09
2022-08-21T20:59:50.029Z,98144.66
2022-08-21T21:02:16.487Z,98141.59
2022-08-21T21:04:51.544Z,98145.06
2022-08-21T21:07:41.800Z,98146.53
2022-08-21T21:10:12.862Z,98141.16
2022-08-21T21:12:42.985Z,98140.09
2022-08-21T21:15:23.446Z,98142.38
2022-08-21T21:18:13.046Z,98142.78
2022-08-21T21:21:16.597Z,98135.75
2022-08-21T21:23:50.515Z,98138.59
2022-08-21T21:26:30.817Z,98137.34
2022-08-21T21:29:24.877Z,98139.00
2022-08-21T21:31:53.501Z,98136.50
2022-08-21T21:34:21.928Z,98135.25
2022-08-21T21:40:29.452Z,98132.97
2022-08-21T21:43:13.929Z,98127.41
2022-08-21T21:45:56.875Z,98125.72
2022-08-21T21:48:29.195Z,98133.94
2022-08-21T21:54:04.842Z,98142.31
2022-08-21T21:56:40.391Z,98144.53
2022-08-21T21:59:29.817Z,98138.97
2022-08-21T22:02:24.207Z,98138.78
2022-08-21T22:05:31.425Z,98142.72
2022-08-21T22:08:08.034Z,98133.63
2022-08-21T22:10:43.774Z,98138.16
2022-08-21T22:13:26.645Z,98135.06
2022-08-21T22:15:54.670Z,98137.13
2022-08-21T22:18:29.852Z,98139.97
2022-08-21T22:21:10.164Z,98146.31
2022-08-21T22:23:42.214Z,98138.06
2022-08-21T22:26:13.410Z,98141.94
2022-08-21T22:28:43.718Z,98140.66
2022-08-21T22:31:21.183Z,98141.22
2022-08-21T22:34:19.442Z,98139.19
2022-08-21T22:36:55.349Z,98146.94
2022-08-21T22:39:39.027Z,98137.72
2022-08-21T22:42:24.808Z,98147.66
2022-08-21T22:44:56.257Z,98152.00
2022-08-21T22:47:33.691Z,98152.00
2022-08-21T22:50:04.716Z,98147.63
2022-08-21T22:52:34.612Z,98152.88
2022-08-21T22:55:17.517Z,98148.97
2022-08-21T22:57:43.947Z,98143.63
2022-08-21T23:00:36.464Z,98152.28
2022-08-21T23:03:03.680Z,98154.69
2022-08-21T23:05:30.519Z,98155.13
2022-08-21T23:08:13.903Z,98152.69
2022-08-21T23:10:41.321Z,98152.81
2022-08-21T23:13:13.302Z,98157.59
2022-08-21T23:16:11.448Z,98154.72
2022-08-21T23:19:03.649Z,98152.16
2022-08-21T23:21:41.810Z,98149.22
2022-08-21T23:24:19.631Z,98150.19
2022-08-21T23:27:07.912Z,98150.09
2022-08-21T23:29:38.715Z,98145.38
2022-08-21T23:32:35.674Z,98138.94
2022-08-21T23:35:51.804Z,98139.53
2022-08-21T23:38:48.159Z,98140.50
2022-08-21T23:44:42.469Z,98137.97
2022-08-21T23:47:34.023Z,98135.03
2022-08-21T23:50:14.094Z,98141.75
2022-08-21T23:52:59.469Z,98144.75
2022-08-21T23:55:32.382Z,98141.81
2022-08-21T23:58:33.167Z,98153.19
